La Crosse, KS (67548)

5:27 AM CST on March 04, 2015 (GMT -0600)
Rural Ellis Co. | Change Station
CLOSE
Current Station
Personal Weather Station
Location: Hays, KS
Elevation: 2077 ft
Nearby Weather Stations
Active Advisory: Winter Weather Advisory

Elev 2077 ft 38.81 °N, 99.37 °W | Updated 14 minutes ago

Overcast
Overcast
17.6 °F
Feels Like 5 °F
N
11.4
Wind Variable Wind from ENE

Today
High -- | Low -- °F
--% Chance of Precip.
Yesterday
High -- | Low -- °F
Precip. -- in
7:05 AM 6:33 PM
Waxing Gibbous, 99% visible
Pressure 30.20 in
Visibility 5.0 miles
Clouds Few 1700 ft
Scattered Clouds 3400 ft
Mostly Cloudy 3900 ft
Windchill 5 °F
Dew Point 14 °F
Humidity 87%
Rainfall 0.00 in
Snow Depth Not available.
UV 0 out of 12
Pollen 3.90 out of 12
Air Quality Not available.
Flu Activity Not available.
METAR KHYS 041115Z AUTO 03013KT 5SM FEW017 SCT034 BKN039 M08/M14 A3020 RMK AO1

More Conditions Fewer Conditions

Pressure 30.20 in
Visibility 5.0 miles
Clouds Few 1700 ft
Scattered Clouds 3400 ft
Mostly Cloudy 3900 ft
Windchill 5 °F
Dew Point 14 °F
Humidity 87%
Rainfall 0.00 in
Snow Depth Not available.
UV 0 out of 12
Pollen 3.90 out of 12
Air Quality Not available.
Flu Activity Not available.
METAR KHYS 041115Z AUTO 03013KT 5SM FEW017 SCT034 BKN039 M08/M14 A3020 RMK AO1

More Conditions Fewer Conditions

10-Day Weather Forecast

Almanac

Astronomy

Mar. 04, 2015 Rise Set
Actual Time
Civil Twilight
Nautical Twilight
Astronomical Twilight
Moon
Length of Visible Light
Length of Day
Tomorrow will be .
, % of the Moon is Illuminated

Today's Extremes

State Highs State Lows

Community

WunderPhotos

Upload Photos

1,802,434 photos uploaded!

WunderBlogs® & News

Nearby

Air Quality

  Air Quality AQ Index Pollutant
Not available.

Snow Depth

Station Depth Elevation

Earthquake Activity

City Distance Mag. Time & Date
Minimum magnitude displayed is 2.5.

Coastal Water Temperatures

Place Temperature

Nearby Weather Stations

Winter Weather Advisory
Statement as of 4:26 AM CST on March 04, 2015

... Winter Weather Advisory remains in effect until 6 PM CST this
evening...

* timing... the most significant snow accumulation will occur
during this morning.

* Snow amounts... 2 to 5 inches across the Highway 56 corridor with
1-2 inches possible elsewhere.

* Other impacts... snow covered roads causing hazardous travel
conditions. Reduced visibilities due to localized blowing snow.

Precautionary/preparedness actions...

A Winter Weather Advisory for snow means that periods of snow
will cause primarily travel difficulties. Be prepared for snow
covered roads and limited visibilities... and use caution while
driving.



Gerard